Port Alexander, AK

3:04 PM AKST on December 20, 2014 (GMT -0900)
Port Alexander | Change Station
CLOSE
Current Station
Airport
Location: Port Alexander,
Elevation: 0 ft
Nearby Weather Stations

Elev 0 ft 56.25 °N, 134.65 °W | Updated 13 minutes ago

Overcast
Overcast
45 °F
Feels Like 41 °F
N
6
Wind Variable Wind from South

Today
High -- | Low -- °F
--% Chance of Precip.
Yesterday
High -- | Low -- °F
Precip. -- in
8:29 AM 3:23 PM
Waning Crescent, 1% visible
Pressure 28.92 in
Visibility 7.0 miles
Clouds Mostly Cloudy 1500 ft
Overcast 3000 ft
Windchill 41 °F
Dew Point 41 °F
Humidity 87%
Rainfall 0.00 in
Snow Depth Not available.
UV 0 out of 12
Pollen Not available.
Air Quality Not available.
Flu Activity Not available.
METAR PAAP 202351Z 18005KT 7SM BKN015 OVC030 07/05 A2892 RMK 70033 400720056 NO SPECI

More Conditions Fewer Conditions

Pressure 28.92 in
Visibility 7.0 miles
Clouds Mostly Cloudy 1500 ft
Overcast 3000 ft
Windchill 41 °F
Dew Point 41 °F
Humidity 87%
Rainfall 0.00 in
Snow Depth Not available.
UV 0 out of 12
Pollen Not available.
Air Quality Not available.
Flu Activity Not available.
METAR PAAP 202351Z 18005KT 7SM BKN015 OVC030 07/05 A2892 RMK 70033 400720056 NO SPECI

More Conditions Fewer Conditions

10-Day Weather Forecast

Almanac

Astronomy

Dec. 20, 2014 Rise Set
Actual Time
Civil Twilight
Nautical Twilight
Astronomical Twilight
Moon
Length of Visible Light
Length of Day
Tomorrow will be .
, % of the Moon is Illuminated

Today's Extremes

State Highs State Lows

Community

WunderPhotos

Upload Photos

1,779,320 photos uploaded!

WunderBlogs® & News

Nearby

Air Quality

  Air Quality AQ Index Pollutant
Not available.

Snow Depth

Station Depth Elevation

Earthquake Activity

City Distance Mag. Time & Date
Minimum magnitude displayed is 2.5.

Coastal Water Temperatures

Place Temperature

Nearby Weather Stations